Florence, Kentucky
Current Conditions -  °F | °C
As of 7:52 PM on Saturday 20 Dec 2014 (Local Time) from KCVG Reporting Station
Haze Haze  
Wind Chill: 32°   Ceiling: 1700
Heat Index: 32°   Visibility: 6mi
Dew Point: 25°   Wind: 3mph
Humidity: 75%   Direction: 20°NNE
Pressure: 30.28"   Gusts: NA
Location:  39°N, 84.63°W
Report Text: KCVG 210052Z 02003KT 6SM HZ OVC017 00/M04 A3028 RMK AO2 SLP262 T00001039
Loading
Personal Weather Stations






























Interactive Weather Map New forecast layout! Learn more

10-Day Weather Forecast

Advertisements
Track Severe Weather on mobile